createdAt,value
2023-02-19T00:01:37.327Z,65387.91
2023-02-19T00:04:08.261Z,65387.91
2023-02-19T00:06:36.448Z,65387.91
2023-02-19T00:09:05.145Z,65387.91
2023-02-19T00:11:35.206Z,65387.91
2023-02-19T00:14:03.949Z,65387.91
2023-02-19T00:16:34.686Z,65387.91
2023-02-19T00:19:03.762Z,65387.91
2023-02-19T00:21:33.852Z,65387.91
2023-02-19T00:24:03.235Z,65387.91
2023-02-19T00:26:31.027Z,65387.91
2023-02-19T00:28:58.983Z,65387.91
2023-02-19T00:31:29.516Z,65387.91
2023-02-19T00:33:59.953Z,65387.91
2023-02-19T00:36:28.833Z,65387.91
2023-02-19T00:38:58.121Z,65387.91
2023-02-19T00:41:26.291Z,65387.91
2023-02-19T00:43:55.349Z,65387.91
2023-02-19T00:46:24.469Z,65387.91
2023-02-19T00:48:52.521Z,65387.91
2023-02-19T00:51:20.996Z,65387.91
2023-02-19T00:53:48.687Z,65387.91
2023-02-19T00:56:20.679Z,65387.91
2023-02-19T00:58:48.494Z,65387.91
2023-02-19T01:01:16.566Z,65387.91
2023-02-19T01:03:44.395Z,65387.91
2023-02-19T01:06:14.294Z,65387.91
2023-02-19T01:08:42.076Z,65387.91
2023-02-19T01:11:11.032Z,65387.91
2023-02-19T01:13:40.383Z,65387.91
2023-02-19T01:16:09.651Z,65387.91
2023-02-19T01:18:37.805Z,65387.91
2023-02-19T01:21:08.132Z,65387.91
2023-02-19T01:23:36.827Z,65387.91
2023-02-19T01:26:07.921Z,65387.91
2023-02-19T01:28:35.871Z,65387.91
2023-02-19T01:31:06.056Z,65387.91
2023-02-19T01:33:34.486Z,65387.91
2023-02-19T01:36:04.622Z,65387.91
2023-02-19T01:38:32.190Z,65387.91
2023-02-19T01:41:01.272Z,65387.91
2023-02-19T01:43:29.217Z,65387.91
2023-02-19T01:45:56.653Z,65387.91
2023-02-19T01:48:28.523Z,65387.91
2023-02-19T01:51:00.210Z,65387.91
2023-02-19T01:53:32.201Z,65387.91
2023-02-19T01:56:01.827Z,65387.91
2023-02-19T01:58:32.740Z,65387.91
2023-02-19T02:01:01.629Z,65387.91
2023-02-19T02:03:31.760Z,65387.91
2023-02-19T02:06:03.250Z,65387.91
2023-02-19T02:08:52.349Z,65387.91
2023-02-19T02:11:21.146Z,65387.91
2023-02-19T02:13:50.130Z,65387.91
2023-02-19T02:16:24.462Z,65387.91
2023-02-19T02:19:02.640Z,65387.91
2023-02-19T02:21:59.138Z,65387.91
2023-02-19T02:24:59.454Z,65387.91
2023-02-19T02:27:39.763Z,65387.91
2023-02-19T02:30:18.340Z,65387.91
2023-02-19T02:32:54.696Z,65387.91
2023-02-19T02:35:26.567Z,65387.91
2023-02-19T02:37:57.890Z,65387.91
2023-02-19T02:40:25.774Z,65387.91
2023-02-19T02:42:53.133Z,65387.91
2023-02-19T02:45:38.302Z,65387.91
2023-02-19T02:48:12.822Z,65387.91
2023-02-19T02:50:43.989Z,65387.91
2023-02-19T02:53:31.113Z,65387.91
2023-02-19T02:56:00.374Z,65387.91
2023-02-19T02:58:30.129Z,65387.91
2023-02-19T03:01:22.098Z,65387.91
2023-02-19T03:03:54.594Z,65387.91
2023-02-19T03:06:26.139Z,65387.91
2023-02-19T03:08:57.539Z,65387.91
2023-02-19T03:11:39.075Z,65387.91
2023-02-19T03:14:29.511Z,65387.91
2023-02-19T03:17:21.114Z,65387.91
2023-02-19T03:19:54.010Z,65387.91
2023-02-19T03:22:26.486Z,65387.91
2023-02-19T03:25:15.353Z,65387.91
2023-02-19T03:27:44.584Z,65387.91
2023-02-19T03:30:16.374Z,65387.91
2023-02-19T03:32:49.583Z,65387.91
2023-02-19T03:35:21.272Z,65387.91
2023-02-19T03:37:54.238Z,65387.91
2023-02-19T03:40:23.597Z,65387.91
2023-02-19T03:43:00.168Z,65387.91
2023-02-19T03:45:36.095Z,65387.91
2023-02-19T03:48:27.120Z,65387.91
2023-02-19T03:51:08.160Z,65387.91
2023-02-19T03:53:44.530Z,65387.91
2023-02-19T03:56:17.819Z,65387.91
2023-02-19T03:58:56.130Z,65387.91
2023-02-19T04:01:29.250Z,65387.91
2023-02-19T04:04:04.530Z,65387.91
2023-02-19T04:06:34.576Z,65387.91
2023-02-19T04:09:05.923Z,65387.91
2023-02-19T04:11:34.275Z,65387.91
2023-02-19T04:14:06.118Z,65387.91
2023-02-19T04:16:35.554Z,65387.91
2023-02-19T04:19:10.153Z,65387.91
2023-02-19T04:21:39.376Z,65387.91
2023-02-19T04:24:11.015Z,65387.91
2023-02-19T04:26:38.848Z,65387.91
2023-02-19T04:29:06.824Z,65387.91
2023-02-19T04:31:36.260Z,65387.91
2023-02-19T04:34:05.644Z,65387.91
2023-02-19T04:36:33.790Z,65387.91
2023-02-19T04:39:01.262Z,65387.91
2023-02-19T04:41:28.829Z,65387.91
2023-02-19T04:43:56.228Z,65387.91
2023-02-19T04:46:25.966Z,65387.91
2023-02-19T04:48:53.689Z,65387.91
2023-02-19T04:51:22.542Z,65387.91
2023-02-19T04:53:50.181Z,65387.91
2023-02-19T04:56:18.623Z,65387.91
2023-02-19T04:58:46.712Z,65387.91
2023-02-19T05:01:14.744Z,65387.91
2023-02-19T05:03:42.357Z,65387.91
2023-02-19T05:06:12.287Z,65387.91
2023-02-19T05:08:41.796Z,65387.91
2023-02-19T05:11:12.708Z,65387.91
2023-02-19T05:13:40.728Z,65387.91
2023-02-19T05:16:13.678Z,65387.91
2023-02-19T05:18:41.424Z,65387.91
2023-02-19T05:21:10.272Z,65387.91
2023-02-19T05:23:38.362Z,65387.91
2023-02-19T05:26:09.292Z,65387.91
2023-02-19T05:28:37.957Z,65387.91
2023-02-19T05:31:07.499Z,65387.91
2023-02-19T05:33:35.187Z,65387.91
2023-02-19T05:36:08.026Z,65387.91
2023-02-19T05:38:35.620Z,65387.91
2023-02-19T05:41:13.885Z,65387.91
2023-02-19T05:43:42.657Z,65387.91
2023-02-19T05:46:11.628Z,65387.91
2023-02-19T05:48:39.291Z,65387.91
2023-02-19T05:51:15.836Z,65387.91
2023-02-19T05:53:44.241Z,65387.91
2023-02-19T05:56:28.128Z,65387.91
2023-02-19T05:58:56.465Z,65387.91
2023-02-19T06:01:26.759Z,65387.91
2023-02-19T06:03:57.252Z,65387.91
2023-02-19T06:06:27.438Z,65387.91
2023-02-19T06:08:56.417Z,65387.91
2023-02-19T06:11:25.571Z,65387.91
2023-02-19T06:13:52.973Z,65387.91
2023-02-19T06:16:21.813Z,65387.91
2023-02-19T06:18:50.622Z,65387.91
2023-02-19T06:21:19.008Z,65387.91
2023-02-19T06:23:47.375Z,65387.91
2023-02-19T06:26:18.533Z,65387.91
2023-02-19T06:28:48.510Z,65387.91
2023-02-19T06:31:16.885Z,65387.91
2023-02-19T06:33:44.929Z,65387.91
2023-02-19T06:36:14.405Z,65387.91
2023-02-19T06:38:42.150Z,65387.91
2023-02-19T06:41:11.112Z,65387.91
2023-02-19T06:43:38.711Z,65387.91
2023-02-19T06:46:08.396Z,65387.91
2023-02-19T06:48:36.367Z,65387.91
2023-02-19T06:51:04.188Z,65387.91
2023-02-19T06:53:31.617Z,65387.91
2023-02-19T06:56:00.938Z,65387.91
2023-02-19T06:58:29.134Z,65387.91
2023-02-19T07:00:56.673Z,65387.91
2023-02-19T07:03:26.464Z,65387.91
2023-02-19T07:05:54.299Z,65387.91
2023-02-19T07:08:21.776Z,65387.91
2023-02-19T07:10:55.965Z,65387.91
2023-02-19T07:13:23.467Z,65387.91
2023-02-19T07:15:52.267Z,65387.91
2023-02-19T07:18:23.043Z,65387.91
2023-02-19T07:20:51.984Z,65387.91
2023-02-19T07:23:19.401Z,65387.91
2023-02-19T07:25:46.826Z,65387.91
2023-02-19T07:28:14.195Z,65387.91
2023-02-19T07:30:41.624Z,65387.91
2023-02-19T07:33:12.566Z,65387.91
2023-02-19T07:35:46.716Z,65387.91
2023-02-19T07:38:17.880Z,65387.91
2023-02-19T07:40:53.185Z,65387.91
2023-02-19T07:43:22.179Z,65387.91
2023-02-19T07:45:50.791Z,65387.91
2023-02-19T07:48:18.854Z,65387.91
2023-02-19T07:50:52.830Z,65387.91
2023-02-19T07:53:21.775Z,65387.91
2023-02-19T07:55:49.250Z,65387.91
2023-02-19T07:58:17.107Z,65387.91
2023-02-19T08:00:44.902Z,65387.91
2023-02-19T08:03:12.045Z,65387.91
2023-02-19T08:05:41.531Z,65387.91
2023-02-19T08:08:10.550Z,65387.91
2023-02-19T08:10:56.982Z,65387.91
2023-02-19T08:13:26.190Z,65387.91
2023-02-19T08:16:01.729Z,65387.91
2023-02-19T08:18:35.321Z,65387.91
2023-02-19T08:21:03.209Z,65387.91
2023-02-19T08:23:30.855Z,65387.91
2023-02-19T08:26:00.747Z,65387.91
2023-02-19T08:28:28.598Z,65387.91
2023-02-19T08:31:00.371Z,65387.91
2023-02-19T08:33:27.906Z,65387.91
2023-02-19T08:35:55.300Z,65387.91
2023-02-19T08:38:22.842Z,65387.91
2023-02-19T08:40:50.202Z,65387.91
2023-02-19T08:43:19.302Z,65387.91
2023-02-19T08:45:49.251Z,65387.91
2023-02-19T08:48:17.311Z,65387.91
2023-02-19T08:50:44.732Z,65387.91
2023-02-19T08:53:12.109Z,65387.91
2023-02-19T08:55:39.860Z,65387.91
2023-02-19T08:58:08.578Z,65387.91
2023-02-19T09:00:37.366Z,65387.91
2023-02-19T09:03:04.911Z,65387.91
2023-02-19T09:05:32.612Z,65387.91
2023-02-19T09:08:02.022Z,65387.91
2023-02-19T09:10:29.509Z,65387.91
2023-02-19T09:12:57.154Z,65387.91
2023-02-19T09:15:24.577Z,65387.91
2023-02-19T09:17:54.193Z,65387.91
2023-02-19T09:20:21.684Z,65387.91
2023-02-19T09:22:49.086Z,65387.91
2023-02-19T09:25:16.813Z,65387.91
2023-02-19T09:27:46.165Z,65387.91
2023-02-19T09:30:14.041Z,65387.91
2023-02-19T09:32:41.443Z,65387.91
2023-02-19T09:35:10.133Z,65387.91
2023-02-19T09:37:37.769Z,65387.91
2023-02-19T09:40:05.628Z,65387.91
2023-02-19T09:42:34.134Z,65387.91
2023-02-19T09:45:02.655Z,65387.91
2023-02-19T09:47:32.747Z,65387.91
2023-02-19T09:50:03.555Z,65387.91
2023-02-19T09:52:37.876Z,65387.91
2023-02-19T09:55:15.849Z,65387.91
2023-02-19T09:57:44.461Z,65387.91
2023-02-19T10:00:25.048Z,65387.91
2023-02-19T10:02:54.552Z,65387.91
2023-02-19T10:05:24.859Z,65387.91
2023-02-19T10:07:55.549Z,65387.91
2023-02-19T10:10:28.750Z,65387.91
2023-02-19T10:13:00.249Z,65387.91
2023-02-19T10:15:33.175Z,65387.91
2023-02-19T10:18:00.744Z,65387.91
2023-02-19T10:20:28.656Z,65387.91
2023-02-19T10:23:03.749Z,65387.91
2023-02-19T10:25:32.657Z,65387.91
2023-02-19T10:28:02.291Z,65387.91
2023-02-19T10:30:32.780Z,65387.91
2023-02-19T10:33:04.503Z,65387.91
2023-02-19T10:35:37.383Z,65387.91
2023-02-19T10:38:08.205Z,65387.91
2023-02-19T10:40:36.934Z,65387.91
2023-02-19T10:43:06.071Z,65387.91
2023-02-19T10:45:39.518Z,65387.91
2023-02-19T10:48:08.410Z,65387.91
2023-02-19T10:50:39.150Z,65387.91
2023-02-19T10:53:23.254Z,65387.91
2023-02-19T10:56:08.207Z,65387.91
2023-02-19T10:58:37.750Z,65387.91
2023-02-19T11:01:19.422Z,65387.91
2023-02-19T11:03:48.554Z,65387.91
2023-02-19T11:06:18.294Z,65387.91
2023-02-19T11:09:00.890Z,65387.91
2023-02-19T11:11:34.266Z,65387.91
2023-02-19T11:14:06.222Z,65387.91
2023-02-19T11:16:42.882Z,65387.91
2023-02-19T11:19:28.758Z,65387.91
2023-02-19T11:21:58.861Z,65387.91
2023-02-19T11:24:33.761Z,65387.91
2023-02-19T11:27:03.731Z,65387.91
2023-02-19T11:29:34.760Z,65387.91
2023-02-19T11:32:30.528Z,100964.16
2023-02-19T11:35:17.574Z,100940.94
2023-02-19T11:37:56.283Z,100955.25
2023-02-19T11:40:32.232Z,100963.00
2023-02-19T11:43:08.092Z,100965.13
2023-02-19T11:45:42.679Z,100969.84
2023-02-19T11:48:29.596Z,100981.47
2023-02-19T11:51:08.444Z,100982.06
2023-02-19T11:53:42.483Z,100973.63
2023-02-19T11:56:19.628Z,100979.06
2023-02-19T11:59:01.222Z,100967.66
2023-02-19T12:01:53.154Z,100960.38
2023-02-19T12:05:00.234Z,100963.03
2023-02-19T12:07:55.389Z,100964.47
2023-02-19T12:10:29.315Z,100961.44
2023-02-19T12:13:05.502Z,100954.22
2023-02-19T12:16:13.345Z,100963.53
2023-02-19T12:19:11.638Z,100955.09
2023-02-19T12:21:52.027Z,100949.25
2023-02-19T12:24:49.863Z,100934.28
2023-02-19T12:27:29.994Z,100952.47
2023-02-19T12:30:17.365Z,100946.84
2023-02-19T12:33:18.369Z,100959.97
2023-02-19T12:36:02.455Z,100982.94
2023-02-19T12:38:35.726Z,100989.47
2023-02-19T12:41:25.110Z,100978.75
2023-02-19T12:43:56.263Z,100984.41
2023-02-19T12:46:28.973Z,100967.91
2023-02-19T12:49:02.453Z,100972.09
2023-02-19T12:51:35.006Z,100967.91
2023-02-19T12:54:14.144Z,100975.34
2023-02-19T12:56:45.781Z,100996.34
2023-02-19T12:59:21.398Z,101006.66
2023-02-19T13:01:54.668Z,101009.97
2023-02-19T13:04:34.306Z,101012.09
2023-02-19T13:07:06.972Z,101007.78
2023-02-19T13:09:40.025Z,101016.59
2023-02-19T13:12:09.589Z,101024.91
2023-02-19T13:14:42.716Z,101014.72
2023-02-19T13:17:19.055Z,101036.31
2023-02-19T13:19:49.590Z,101036.50
2023-02-19T13:22:42.558Z,101036.75
2023-02-19T13:25:13.461Z,101052.03
2023-02-19T13:28:05.212Z,101048.97
2023-02-19T13:30:54.302Z,101055.06
2023-02-19T13:33:33.857Z,101049.06
2023-02-19T13:36:11.536Z,101044.19
2023-02-19T13:38:41.969Z,101037.22
2023-02-19T13:41:22.409Z,101044.81
2023-02-19T13:44:03.640Z,101033.09
2023-02-19T13:46:38.039Z,101026.63
2023-02-19T13:49:28.095Z,101017.81
2023-02-19T13:51:57.128Z,101019.47
2023-02-19T13:54:27.231Z,101007.38
2023-02-19T13:57:30.253Z,101021.97
2023-02-19T13:59:59.112Z,101010.63
2023-02-19T14:02:31.142Z,101006.38
2023-02-19T14:05:00.934Z,101007.16
2023-02-19T14:07:51.108Z,101017.91
2023-02-19T14:11:13.315Z,101036.75
2023-02-19T14:14:06.810Z,101034.72
2023-02-19T14:16:50.896Z,101044.31
2023-02-19T14:19:50.467Z,101043.00
2023-02-19T14:23:01.460Z,101047.88
2023-02-19T14:25:48.921Z,101042.38
2023-02-19T14:28:25.778Z,101032.97
2023-02-19T14:30:57.252Z,101036.22
2023-02-19T14:33:26.414Z,101036.22
2023-02-19T14:35:57.422Z,101039.03
2023-02-19T14:38:29.499Z,101052.88
2023-02-19T14:41:00.132Z,101037.38
2023-02-19T14:43:28.527Z,101049.19
2023-02-19T14:45:59.836Z,101049.94
2023-02-19T14:48:31.892Z,101053.13
2023-02-19T14:51:05.033Z,101053.16
2023-02-19T14:53:38.252Z,101051.53
2023-02-19T14:56:08.595Z,101057.97
2023-02-19T14:58:40.523Z,101061.53
2023-02-19T15:01:26.741Z,101066.34
2023-02-19T15:03:56.553Z,101068.00
2023-02-19T15:06:24.457Z,101060.00
2023-02-19T15:08:55.001Z,101052.94
2023-02-19T15:11:25.370Z,101048.50
2023-02-19T15:13:56.845Z,101034.25
2023-02-19T15:16:27.843Z,101026.56
2023-02-19T15:18:57.070Z,101010.50
2023-02-19T15:21:26.881Z,101016.00
2023-02-19T15:23:56.787Z,101004.97
2023-02-19T15:26:29.000Z,101024.22
2023-02-19T15:29:01.152Z,101034.78
2023-02-19T15:31:30.393Z,101034.72
2023-02-19T15:33:57.843Z,101025.16
2023-02-19T15:36:31.896Z,101013.78
2023-02-19T15:39:01.806Z,101024.34
2023-02-19T15:41:33.373Z,101036.44
2023-02-19T15:44:14.839Z,101038.69
2023-02-19T15:46:48.066Z,101035.84
2023-02-19T15:49:21.337Z,101035.63
2023-02-19T15:51:54.527Z,101033.84
2023-02-19T15:54:28.159Z,101036.66
2023-02-19T15:57:01.234Z,101026.63
2023-02-19T15:59:32.982Z,101019.34
2023-02-19T16:02:03.756Z,101013.19
2023-02-19T16:04:32.431Z,100997.53
2023-02-19T16:07:02.325Z,101000.13
2023-02-19T16:09:31.751Z,100997.72
2023-02-19T16:12:00.755Z,101002.38
2023-02-19T16:14:33.051Z,100981.59
2023-02-19T16:17:13.205Z,100988.72
2023-02-19T16:19:47.314Z,100949.53
2023-02-19T16:22:18.255Z,100967.56
2023-02-19T16:24:49.470Z,100962.84
2023-02-19T16:27:30.384Z,100955.03
2023-02-19T16:30:02.526Z,100966.56
2023-02-19T16:32:31.393Z,100974.28
2023-02-19T16:34:58.795Z,100974.03
2023-02-19T16:37:34.230Z,100979.41
2023-02-19T16:41:01.974Z,100975.50
2023-02-19T16:43:32.807Z,100973.84
2023-02-19T16:46:00.958Z,100956.94
2023-02-19T16:48:29.699Z,100951.59
2023-02-19T16:50:57.263Z,100945.09
2023-02-19T16:53:29.296Z,100928.78
2023-02-19T16:55:56.720Z,100912.59
2023-02-19T16:58:24.137Z,100923.63
2023-02-19T17:00:54.074Z,100914.00
2023-02-19T17:03:25.473Z,100910.28
2023-02-19T17:05:54.409Z,100891.69
2023-02-19T17:08:33.693Z,100910.53
2023-02-19T17:11:03.203Z,100905.41
2023-02-19T17:13:30.643Z,100922.81
2023-02-19T17:15:58.213Z,100912.59
2023-02-19T17:18:25.851Z,100925.38
2023-02-19T17:20:57.597Z,100919.47
2023-02-19T17:23:26.576Z,100914.25
2023-02-19T17:25:54.009Z,100908.91
2023-02-19T17:28:21.405Z,100913.63
2023-02-19T17:30:48.854Z,100913.09
2023-02-19T17:33:16.225Z,100905.38
2023-02-19T17:35:44.789Z,100909.09
2023-02-19T17:38:14.774Z,100903.59
2023-02-19T17:40:46.085Z,100901.88
2023-02-19T17:43:15.508Z,100898.81
2023-02-19T17:45:42.980Z,100894.91
2023-02-19T17:48:13.175Z,100889.63
2023-02-19T17:50:40.937Z,100883.16
2023-02-19T17:53:08.692Z,100905.09
2023-02-19T17:55:37.370Z,100878.59
2023-02-19T17:58:07.130Z,100888.69
2023-02-19T18:00:35.248Z,100897.09
2023-02-19T18:03:02.906Z,100889.81
2023-02-19T18:05:31.346Z,100894.13
2023-02-19T18:07:58.754Z,100891.84
2023-02-19T18:10:26.325Z,100895.94
2023-02-19T18:12:55.081Z,100892.19
2023-02-19T18:15:25.431Z,100879.75
2023-02-19T18:17:53.176Z,100864.28
2023-02-19T18:20:23.000Z,100879.66
2023-02-19T18:22:50.477Z,100888.34
2023-02-19T18:25:19.885Z,100886.06
2023-02-19T18:27:49.131Z,100894.13
2023-02-19T18:30:20.159Z,100892.31
2023-02-19T18:32:48.558Z,100893.13
2023-02-19T18:35:16.739Z,100895.78
2023-02-19T18:37:45.572Z,100895.97
2023-02-19T18:40:15.091Z,100898.69
2023-02-19T18:42:43.837Z,100893.56
2023-02-19T18:45:11.413Z,100897.75
2023-02-19T18:47:40.227Z,100907.31
2023-02-19T18:50:09.705Z,100910.28
2023-02-19T18:52:38.162Z,100919.03
2023-02-19T18:55:06.315Z,100922.63
2023-02-19T18:57:34.002Z,100922.50
2023-02-19T19:00:01.370Z,100931.44
2023-02-19T19:02:36.451Z,100944.72
2023-02-19T19:05:13.196Z,100945.72
2023-02-19T19:07:46.710Z,100956.97
2023-02-19T19:10:14.686Z,100946.09
2023-02-19T19:12:43.617Z,100952.69
2023-02-19T19:15:11.070Z,100952.97
2023-02-19T19:17:39.809Z,100952.88
2023-02-19T19:20:08.288Z,100960.09
2023-02-19T19:22:37.153Z,100948.50
2023-02-19T19:25:08.194Z,100947.47
2023-02-19T19:27:39.755Z,100952.78
2023-02-19T19:30:09.961Z,100955.06
2023-02-19T19:32:43.509Z,100967.03
2023-02-19T19:35:14.546Z,100931.78
2023-02-19T19:37:45.050Z,100959.53
2023-02-19T19:40:16.632Z,100963.81
2023-02-19T19:42:50.298Z,100958.34
2023-02-19T19:45:23.737Z,100958.34
2023-02-19T19:47:53.712Z,100959.31
2023-02-19T19:50:21.679Z,100955.56
2023-02-19T19:52:53.128Z,100956.50
2023-02-19T19:55:25.349Z,100955.06
2023-02-19T19:57:55.433Z,100957.06
2023-02-19T20:00:27.714Z,100949.59
2023-02-19T20:02:55.261Z,100939.47
2023-02-19T20:05:22.690Z,100943.22
2023-02-19T20:07:51.676Z,100937.94
2023-02-19T20:10:19.947Z,100930.94
2023-02-19T20:12:47.737Z,100933.94
2023-02-19T20:15:20.902Z,100943.16
2023-02-19T20:17:48.375Z,100945.91
2023-02-19T20:20:17.950Z,100946.97
2023-02-19T20:22:47.120Z,100944.16
2023-02-19T20:25:16.585Z,100944.84
2023-02-19T20:27:49.253Z,100942.66
2023-02-19T20:30:19.511Z,100937.56
2023-02-19T20:32:46.952Z,100940.19
2023-02-19T20:35:18.311Z,100932.00
2023-02-19T20:37:47.923Z,100931.88
2023-02-19T20:40:18.927Z,100934.25
2023-02-19T20:42:46.319Z,100924.03
2023-02-19T20:45:16.526Z,100925.03
2023-02-19T20:47:43.953Z,100912.44
2023-02-19T20:50:12.440Z,100920.63
2023-02-19T20:52:41.334Z,100924.09
2023-02-19T20:55:10.438Z,100921.00
2023-02-19T20:57:39.314Z,100922.19
2023-02-19T21:00:09.020Z,100923.56
2023-02-19T21:02:36.761Z,100916.47
2023-02-19T21:05:04.632Z,100915.22
2023-02-19T21:07:32.057Z,100914.38
2023-02-19T21:10:02.405Z,100919.47
2023-02-19T21:12:34.104Z,100895.56
2023-02-19T21:15:04.356Z,100921.13
2023-02-19T21:17:31.900Z,100917.75
2023-02-19T21:19:59.558Z,100906.50
2023-02-19T21:22:27.042Z,100910.53
2023-02-19T21:24:54.424Z,100901.59
2023-02-19T21:27:22.065Z,100911.00
2023-02-19T21:29:49.427Z,100904.72
2023-02-19T21:32:19.775Z,100897.69
2023-02-19T21:34:48.559Z,100891.47
2023-02-19T21:37:17.450Z,100899.88
2023-02-19T21:39:46.889Z,100894.41
2023-02-19T21:42:18.718Z,100900.53
2023-02-19T21:44:47.280Z,100873.75
2023-02-19T21:47:14.737Z,100886.59
2023-02-19T21:49:44.490Z,100901.22
2023-02-19T21:52:11.875Z,100914.38
2023-02-19T21:54:39.239Z,100908.97
2023-02-19T21:57:06.692Z,100919.25
2023-02-19T21:59:36.048Z,100900.72
2023-02-19T22:02:03.434Z,100913.19
2023-02-19T22:04:31.974Z,100919.13
2023-02-19T22:07:01.697Z,100914.84
2023-02-19T22:09:29.109Z,100909.34
2023-02-19T22:11:56.592Z,100912.25
2023-02-19T22:14:24.030Z,100916.72
2023-02-19T22:16:51.664Z,100909.22
2023-02-19T22:19:19.272Z,100909.50
2023-02-19T22:21:47.042Z,100910.09
2023-02-19T22:24:18.320Z,100897.88
2023-02-19T22:26:46.279Z,100901.78
2023-02-19T22:29:17.869Z,100904.28
2023-02-19T22:31:45.476Z,100895.31
2023-02-19T22:34:13.700Z,100897.34
2023-02-19T22:36:42.590Z,100899.78
2023-02-19T22:39:20.697Z,100906.06
2023-02-19T22:41:48.800Z,100897.13
2023-02-19T22:44:16.496Z,100897.72
2023-02-19T22:46:48.143Z,100887.94
2023-02-19T22:49:16.244Z,100884.22
2023-02-19T22:51:50.389Z,100873.00
2023-02-19T22:54:21.676Z,100896.81
2023-02-19T22:56:49.130Z,100892.97
2023-02-19T22:59:16.617Z,100896.19
2023-02-19T23:01:46.337Z,100902.56
2023-02-19T23:04:15.010Z,100905.19
2023-02-19T23:06:44.542Z,100913.59
2023-02-19T23:09:20.114Z,100908.03
2023-02-19T23:11:49.078Z,100908.66
2023-02-19T23:14:18.776Z,100909.09
2023-02-19T23:16:46.224Z,100901.78
2023-02-19T23:19:15.467Z,100902.25
2023-02-19T23:21:45.845Z,100900.25
2023-02-19T23:24:17.489Z,100900.25
2023-02-19T23:26:46.092Z,100901.84
2023-02-19T23:29:19.163Z,100888.81
2023-02-19T23:31:47.645Z,100904.31
2023-02-19T23:34:18.106Z,100909.59
2023-02-19T23:36:47.827Z,100900.25
2023-02-19T23:39:18.213Z,100904.28
2023-02-19T23:41:50.556Z,100887.81
2023-02-19T23:44:25.377Z,100892.47
2023-02-19T23:46:55.117Z,100893.31
2023-02-19T23:49:24.765Z,100906.75
2023-02-19T23:51:52.301Z,100898.22
2023-02-19T23:54:19.703Z,100900.25
2023-02-19T23:56:47.281Z,100907.13
2023-02-19T23:59:15.471Z,100880.41
